Time;durP1;ratioP1;P1;durP2;ratioP2;P2;SDS_P1;SDS_P2;PMS_P1;PMS_P2;Temp;Humidity;BMP_temperature;BMP_pressure;BME280_temperature;BME280_humidity;BME280_pressure;Samples;Min_cycle;Max_cycle;Signal;HPM_P1;HPM_P2
2023/03/16 00:00:50;;;;;;;7.53;3.58;;;;;;;;;;5118346;28;20102;-23
2023/03/16 00:03:17;;;;;;;13.75;2.80;;;;;;;;;;5117940;28;20102;-24
2023/03/16 00:05:45;;;;;;;11.13;2.67;;;;;;;;;;5117544;28;20374;-23
2023/03/16 00:08:11;;;;;;;13.25;2.55;;;;;;;;;;5117636;28;20027;-25
2023/03/16 00:10:37;;;;;;;6.40;2.95;;;;;;;;;;5118209;28;20037;-24
2023/03/16 00:13:03;;;;;;;13.00;3.28;;;;;;;;;;5117447;28;20102;-23
2023/03/16 00:15:30;;;;;;;13.95;2.97;;;;;;;;;;5117792;28;20031;-25
2023/03/16 00:17:56;;;;;;;6.07;2.30;;;;;;;;;;5117411;28;20024;-23
2023/03/16 00:20:22;;;;;;;12.52;3.00;;;;;;;;;;5117469;28;20035;-22
2023/03/16 00:22:49;;;;;;;5.82;2.88;;;;;;;;;;5117580;28;20389;-24
2023/03/16 00:25:15;;;;;;;9.75;4.03;;;;;;;;;;5117269;28;20107;-22
2023/03/16 00:27:42;;;;;;;10.85;2.85;;;;;;;;;;5117267;28;20128;-23
2023/03/16 00:30:08;;;;;;;12.57;3.80;;;;;;;;;;5117526;28;20023;-22
2023/03/16 00:32:35;;;;;;;5.88;3.22;;;;;;;;;;5117592;28;20366;-22
2023/03/16 00:35:02;;;;;;;10.75;2.65;;;;;;;;;;5117141;28;20020;-26
2023/03/16 00:37:28;;;;;;;13.95;3.03;;;;;;;;;;5117350;28;20068;-24
2023/03/16 00:39:55;;;;;;;5.93;2.67;;;;;;;;;;5117558;28;20394;-28
2023/03/16 00:42:26;;;;;;;5.57;2.88;;;;;;;;;;5117195;28;20083;-22
2023/03/16 00:44:59;;;;;;;12.27;2.67;;;;;;;;;;5117252;28;20027;-26
2023/03/16 00:47:27;;;;;;;8.18;2.88;;;;;;;;;;5117178;28;20073;-22
2023/03/16 00:49:53;;;;;;;5.82;3.30;;;;;;;;;;5116745;28;20035;-23
2023/03/16 00:52:21;;;;;;;9.75;3.30;;;;;;;;;;5116700;28;20027;-23
2023/03/16 00:54:47;;;;;;;14.13;3.33;;;;;;;;;;5116992;28;20024;-24
2023/03/16 00:57:17;;;;;;;12.02;2.65;;;;;;;;;;5116977;28;20035;-23
2023/03/16 00:59:43;;;;;;;9.48;2.67;;;;;;;;;;5116975;28;20336;-25
2023/03/16 01:02:10;;;;;;;12.07;3.83;;;;;;;;;;5116960;28;20373;-23
2023/03/16 01:04:38;;;;;;;8.63;3.17;;;;;;;;;;5116352;28;20044;-22
2023/03/16 01:07:05;;;;;;;6.80;2.88;;;;;;;;;;5116463;28;20442;-23
2023/03/16 01:09:35;;;;;;;13.05;2.97;;;;;;;;;;5116524;28;20023;-24
2023/03/16 01:12:05;;;;;;;10.17;3.80;;;;;;;;;;5115717;28;20089;-28
2023/03/16 01:14:33;;;;;;;6.90;2.60;;;;;;;;;;5116337;28;20019;-23
2023/03/16 01:17:00;;;;;;;10.15;2.40;;;;;;;;;;5116542;28;20027;-27
2023/03/16 01:19:26;;;;;;;4.55;2.58;;;;;;;;;;5116288;28;20484;-22
2023/03/16 01:21:52;;;;;;;9.30;2.83;;;;;;;;;;5116154;28;20035;-24
2023/03/16 01:24:18;;;;;;;5.65;2.88;;;;;;;;;;5116996;28;20032;-23
2023/03/16 01:26:44;;;;;;;10.70;2.88;;;;;;;;;;5116384;28;20046;-23
2023/03/16 01:29:11;;;;;;;11.65;2.60;;;;;;;;;;5116357;28;20058;-24
2023/03/16 01:31:38;;;;;;;6.53;2.83;;;;;;;;;;5116200;28;20073;-23
2023/03/16 01:34:04;;;;;;;8.18;3.45;;;;;;;;;;5115918;28;20027;-23
2023/03/16 01:36:32;;;;;;;6.03;2.58;;;;;;;;;;5115957;28;20099;-24
2023/03/16 01:38:59;;;;;;;8.32;3.58;;;;;;;;;;5116648;28;20024;-23
2023/03/16 01:41:26;;;;;;;7.10;3.33;;;;;;;;;;5115867;28;20019;-23
2023/03/16 01:43:57;;;;;;;5.82;2.80;;;;;;;;;;5116037;28;20019;-23
2023/03/16 01:46:23;;;;;;;;;;;;;;;;;;5116502;28;20096;-26
2023/03/16 01:48:49;;;;;;;11.15;2.70;;;;;;;;;;5116234;28;20319;-24
2023/03/16 01:51:33;;;;;;;5.97;3.13;;;;;;;;;;5115932;28;20346;-23
2023/03/16 01:54:09;;;;;;;10.57;2.97;;;;;;;;;;5115476;28;20042;-25
2023/03/16 01:56:40;;;;;;;6.85;2.80;;;;;;;;;;5115867;28;20084;-23
2023/03/16 01:59:06;;;;;;;;;;;;;;;;;;5115978;28;20027;-25
2023/03/16 02:01:32;;;;;;;9.27;3.47;;;;;;;;;;5115777;28;19918;-27
2023/03/16 02:04:05;;;;;;;7.03;4.55;;;;;;;;;;5115378;28;20043;-26
2023/03/16 02:06:31;;;;;;;8.07;3.08;;;;;;;;;;5116030;28;20459;-22
2023/03/16 02:08:58;;;;;;;16.30;2.78;;;;;;;;;;5115360;28;20028;-23
2023/03/16 02:11:25;;;;;;;5.65;2.28;;;;;;;;;;5115210;28;20035;-23
2023/03/16 02:13:51;;;;;;;13.35;3.58;;;;;;;;;;5115507;28;20016;-23
2023/03/16 02:16:18;;;;;;;11.80;3.30;;;;;;;;;;5115280;28;20033;-25
2023/03/16 02:18:48;;;;;;;6.10;2.67;;;;;;;;;;5115488;28;20084;-24
2023/03/16 02:21:33;;;;;;;10.57;2.55;;;;;;;;;;5115433;28;20435;-23
2023/03/16 02:24:01;;;;;;;4.22;2.67;;;;;;;;;;5096593;28;20340;-22
2023/03/16 02:26:50;;;;;;;8.23;2.97;;;;;;;;;;5115136;28;20027;-24
2023/03/16 02:29:39;;;;;;;7.80;2.95;;;;;;;;;;5102160;28;20463;-23
2023/03/16 02:32:05;;;;;;;4.18;2.20;;;;;;;;;;5115287;28;20024;-25
2023/03/16 02:34:31;;;;;;;8.90;3.25;;;;;;;;;;5115590;28;20034;-23
2023/03/16 02:36:58;;;;;;;7.38;2.83;;;;;;;;;;5115557;28;20043;-22
2023/03/16 02:39:24;;;;;;;7.22;2.83;;;;;;;;;;5115296;28;20019;-26
2023/03/16 02:41:50;;;;;;;4.97;2.40;;;;;;;;;;5114918;28;20086;-22
2023/03/16 02:44:24;;;;;;;6.60;2.58;;;;;;;;;;5115001;28;20092;-23
2023/03/16 02:46:53;;;;;;;7.28;2.88;;;;;;;;;;5115255;28;20081;-27
2023/03/16 02:49:39;;;;;;;5.63;2.30;;;;;;;;;;5115180;28;20024;-23
2023/03/16 02:52:06;;;;;;;3.97;2.40;;;;;;;;;;5114615;28;20020;-23
2023/03/16 02:54:32;;;;;;;12.23;3.65;;;;;;;;;;5114868;28;20027;-26
2023/03/16 02:56:58;;;;;;;8.35;2.60;;;;;;;;;;5115096;28;20039;-25
2023/03/16 02:59:24;;;;;;;6.38;2.50;;;;;;;;;;5114807;28;20111;-26
2023/03/16 03:01:50;;;;;;;7.07;2.38;;;;;;;;;;5115034;28;20035;-23
2023/03/16 03:04:17;;;;;;;9.52;3.13;;;;;;;;;;5114778;28;20035;-22
2023/03/16 03:06:43;;;;;;;4.40;2.97;;;;;;;;;;5114719;28;20046;-23
2023/03/16 03:09:10;;;;;;;7.80;2.33;;;;;;;;;;5115039;28;20062;-23
2023/03/16 03:11:37;;;;;;;2.65;2.00;;;;;;;;;;5115242;28;20020;-26
2023/03/16 03:14:03;;;;;;;9.18;3.10;;;;;;;;;;5114648;28;20031;-23
2023/03/16 03:16:30;;;;;;;6.10;2.47;;;;;;;;;;5114712;28;20024;-23
2023/03/16 03:18:57;;;;;;;4.82;2.20;;;;;;;;;;5114597;28;20031;-25
2023/03/16 03:21:23;;;;;;;5.93;2.72;;;;;;;;;;5114574;28;20085;-25
2023/03/16 03:23:49;;;;;;;4.22;2.13;;;;;;;;;;5114542;28;20066;-23
2023/03/16 03:26:16;;;;;;;5.93;3.03;;;;;;;;;;5114622;28;20023;-24
2023/03/16 03:28:43;;;;;;;4.05;2.40;;;;;;;;;;5114524;28;20059;-23
2023/03/16 03:31:16;;;;;;;11.27;2.70;;;;;;;;;;5114507;28;20110;-23
2023/03/16 03:33:42;;;;;;;4.57;2.50;;;;;;;;;;5115394;28;20113;-22
2023/03/16 03:36:10;;;;;;;5.90;2.25;;;;;;;;;;5118870;28;20316;-23
2023/03/16 03:38:36;;;;;;;6.53;2.30;;;;;;;;;;5118200;28;20028;-23
2023/03/16 03:41:02;;;;;;;4.03;2.67;;;;;;;;;;5118768;28;20027;-24
2023/03/16 03:43:29;;;;;;;14.00;2.88;;;;;;;;;;5118166;28;20027;-24
2023/03/16 03:45:59;;;;;;;7.10;2.85;;;;;;;;;;5118359;28;20404;-26
2023/03/16 03:48:26;;;;;;;5.53;2.35;;;;;;;;;;5118092;28;20035;-22
2023/03/16 03:50:52;;;;;;;4.95;2.15;;;;;;;;;;5118283;28;20043;-25
2023/03/16 03:53:18;;;;;;;5.82;1.98;;;;;;;;;;5118077;28;20061;-25
2023/03/16 03:55:45;;;;;;;6.57;2.28;;;;;;;;;;5117894;28;20088;-23
2023/03/16 03:58:11;;;;;;;3.13;2.13;;;;;;;;;;5118168;28;20402;-24
2023/03/16 04:00:37;;;;;;;3.95;2.33;;;;;;;;;;5117847;28;20022;-24
2023/03/16 04:03:05;;;;;;;2.63;1.92;;;;;;;;;;5117664;28;20031;-25
2023/03/16 04:05:31;;;;;;;5.28;1.92;;;;;;;;;;5117616;28;20131;-25
2023/03/16 04:07:57;;;;;;;3.88;2.20;;;;;;;;;;5118218;28;20035;-23
2023/03/16 04:10:28;;;;;;;3.55;2.20;;;;;;;;;;5117671;28;20382;-23
2023/03/16 04:12:54;;;;;;;;;;;;;;;;;;5118198;28;20315;-23
2023/03/16 04:15:21;;;;;;;3.90;2.05;;;;;;;;;;5117538;28;19908;-24
2023/03/16 04:17:48;;;;;;;4.53;2.17;;;;;;;;;;5117415;28;20042;-23
2023/03/16 04:20:18;;;;;;;5.95;2.10;;;;;;;;;;5117704;28;20020;-23
2023/03/16 04:22:44;;;;;;;5.97;2.70;;;;;;;;;;5117287;28;20054;-23
2023/03/16 04:25:11;;;;;;;7.03;2.78;;;;;;;;;;5117656;28;20019;-23
2023/03/16 04:27:37;;;;;;;5.53;2.75;;;;;;;;;;5117219;28;20023;-26
2023/03/16 04:30:10;;;;;;;8.10;2.50;;;;;;;;;;5117298;28;20408;-25
2023/03/16 04:32:36;;;;;;;8.07;2.50;;;;;;;;;;5117337;28;20172;-24
2023/03/16 04:35:03;;;;;;;3.72;2.30;;;;;;;;;;5117957;28;20031;-23
2023/03/16 04:37:29;;;;;;;5.15;2.50;;;;;;;;;;5117090;28;20028;-24
2023/03/16 04:39:55;;;;;;;6.03;2.20;;;;;;;;;;5117326;28;20391;-26
2023/03/16 04:42:22;;;;;;;7.93;2.75;;;;;;;;;;5117193;28;20109;-23
2023/03/16 04:44:48;;;;;;;2.60;2.13;;;;;;;;;;5116371;28;20081;-23
2023/03/16 04:47:15;;;;;;;5.05;2.67;;;;;;;;;;5116477;28;20474;-23
2023/03/16 04:49:41;;;;;;;5.85;2.55;;;;;;;;;;5116832;28;20039;-22
2023/03/16 04:52:08;;;;;;;4.47;2.10;;;;;;;;;;5116940;28;20032;-24
2023/03/16 04:54:34;;;;;;;5.15;2.13;;;;;;;;;;5117075;28;20019;-26
2023/03/16 04:57:02;;;;;;;3.60;1.90;;;;;;;;;;5117248;28;20024;-23
2023/03/16 04:59:28;;;;;;;7.38;2.47;;;;;;;;;;5116720;28;20128;-23
2023/03/16 05:01:55;;;;;;;14.45;2.70;;;;;;;;;;5116524;28;20322;-22
2023/03/16 05:04:21;;;;;;;7.47;2.67;;;;;;;;;;5116798;28;20063;-25
2023/03/16 05:06:48;;;;;;;4.03;2.15;;;;;;;;;;5116763;28;20030;-23
2023/03/16 05:09:14;;;;;;;5.10;2.10;;;;;;;;;;5116346;28;20127;-23
2023/03/16 05:11:40;;;;;;;5.68;2.45;;;;;;;;;;5116787;28;20023;-23
2023/03/16 05:14:06;;;;;;;3.10;2.15;;;;;;;;;;5116184;28;20497;-23
2023/03/16 05:16:32;;;;;;;6.22;2.58;;;;;;;;;;5116397;28;20065;-24
2023/03/16 05:18:59;;;;;;;6.35;2.15;;;;;;;;;;5116033;28;20027;-22
2023/03/16 05:21:25;;;;;;;4.82;2.75;;;;;;;;;;5116607;28;20431;-23
2023/03/16 05:23:51;;;;;;;7.53;2.67;;;;;;;;;;5115958;28;20031;-22
2023/03/16 05:26:18;;;;;;;7.45;4.07;;;;;;;;;;5115982;28;20019;-23
2023/03/16 05:28:45;;;;;;;8.73;3.35;;;;;;;;;;5116303;28;20028;-23
2023/03/16 05:31:11;;;;;;;9.50;2.38;;;;;;;;;;5115828;28;20051;-23
2023/03/16 05:33:37;;;;;;;3.00;1.95;;;;;;;;;;5115863;28;20102;-25
2023/03/16 05:36:03;;;;;;;7.95;2.70;;;;;;;;;;5115715;28;20019;-29
2023/03/16 05:38:30;;;;;;;6.88;2.90;;;;;;;;;;5115765;28;20454;-23
2023/03/16 05:41:00;;;;;;;5.85;2.40;;;;;;;;;;5115688;28;20102;-23
2023/03/16 05:43:28;;;;;;;6.53;2.53;;;;;;;;;;5115573;28;20028;-22
2023/03/16 05:45:54;;;;;;;6.03;2.85;;;;;;;;;;5115903;28;20027;-26
2023/03/16 05:48:20;;;;;;;7.65;2.70;;;;;;;;;;5115512;28;20023;-22
2023/03/16 05:50:47;;;;;;;10.63;2.45;;;;;;;;;;5115419;28;20038;-22
2023/03/16 05:53:14;;;;;;;16.15;3.88;;;;;;;;;;5115531;28;20335;-24
2023/03/16 05:55:40;;;;;;;11.52;2.95;;;;;;;;;;5115592;28;20406;-23
2023/03/16 05:58:06;;;;;;;8.88;3.22;;;;;;;;;;5115001;28;20023;-23
2023/03/16 06:03:18;;;;;;;6.70;2.55;;;;;;;;;;5402802;22;20114;-25
2023/03/16 06:05:44;;;;;;;5.97;2.70;;;;;;;;;;5054771;28;20348;-24
2023/03/16 06:08:10;;;;;;;5.93;2.15;;;;;;;;;;5054918;28;20039;-24
2023/03/16 06:10:37;;;;;;;5.75;2.40;;;;;;;;;;5055215;28;20355;-25
2023/03/16 06:13:03;;;;;;;11.32;2.90;;;;;;;;;;5055206;28;20056;-26
2023/03/16 06:15:29;;;;;;;12.90;2.55;;;;;;;;;;5054781;28;20040;-25
2023/03/16 06:17:56;;;;;;;9.60;2.53;;;;;;;;;;5054387;28;20021;-25
2023/03/16 06:20:22;;;;;;;7.97;2.90;;;;;;;;;;5054507;28;20048;-25
2023/03/16 06:22:48;;;;;;;5.70;2.40;;;;;;;;;;5054682;28;20032;-25
2023/03/16 06:25:15;;;;;;;8.63;2.63;;;;;;;;;;5054599;28;20025;-26
2023/03/16 06:27:41;;;;;;;10.10;2.22;;;;;;;;;;5054538;28;20589;-26
2023/03/16 06:30:08;;;;;;;9.55;2.72;;;;;;;;;;5054245;28;20040;-25
2023/03/16 06:32:35;;;;;;;10.70;4.70;;;;;;;;;;5036638;28;20104;-25
2023/03/16 06:35:02;;;;;;;6.75;2.35;;;;;;;;;;5036670;28;20017;-25
2023/03/16 06:37:29;;;;;;;12.55;2.08;;;;;;;;;;5054185;28;20134;-25
2023/03/16 06:39:55;;;;;;;11.85;2.92;;;;;;;;;;5054184;28;20053;-26
2023/03/16 06:42:22;;;;;;;10.38;2.72;;;;;;;;;;5054031;28;20084;-26
2023/03/16 06:44:48;;;;;;;9.40;3.50;;;;;;;;;;5053988;28;20062;-26
2023/03/16 06:47:15;;;;;;;16.95;3.03;;;;;;;;;;5054358;28;20025;-26
2023/03/16 06:49:41;;;;;;;11.88;2.25;;;;;;;;;;5054028;28;20033;-26
2023/03/16 06:52:09;;;;;;;6.00;2.42;;;;;;;;;;5054144;28;20033;-26
2023/03/16 06:54:36;;;;;;;5.72;2.97;;;;;;;;;;5053973;28;20021;-26
2023/03/16 06:57:02;;;;;;;13.20;2.58;;;;;;;;;;5054051;28;20045;-26
2023/03/16 06:59:29;;;;;;;6.90;3.03;;;;;;;;;;5054267;28;20029;-26
2023/03/16 07:01:55;;;;;;;6.85;3.00;;;;;;;;;;5053877;28;20032;-26
2023/03/16 07:04:21;;;;;;;7.82;2.45;;;;;;;;;;5053848;28;20402;-26
2023/03/16 07:06:47;;;;;;;6.45;2.30;;;;;;;;;;5054017;28;20099;-26
2023/03/16 07:09:13;;;;;;;5.50;2.05;;;;;;;;;;5055703;28;20036;-26
2023/03/16 07:11:40;;;;;;;19.13;4.15;;;;;;;;;;5058221;28;20037;-26
2023/03/16 07:14:06;;;;;;;7.63;2.55;;;;;;;;;;5057941;28;20078;-26
2023/03/16 07:16:32;;;;;;;10.65;2.33;;;;;;;;;;5057810;28;20424;-26
2023/03/16 07:18:58;;;;;;;19.52;3.55;;;;;;;;;;5057707;28;20301;-26
2023/03/16 07:21:24;;;;;;;10.60;3.00;;;;;;;;;;5057745;28;20021;-26
2023/03/16 07:23:50;;;;;;;8.73;3.38;;;;;;;;;;5057538;28;20020;-26
2023/03/16 07:26:16;;;;;;;9.18;3.33;;;;;;;;;;5057876;28;20033;-26
2023/03/16 07:28:43;;;;;;;11.73;3.38;;;;;;;;;;5057746;28;20355;-26
2023/03/16 07:31:10;;;;;;;7.15;2.83;;;;;;;;;;5057468;28;20455;-26
2023/03/16 07:33:36;;;;;;;17.85;3.40;;;;;;;;;;5057413;28;20025;-26
2023/03/16 07:36:03;;;;;;;9.95;2.42;;;;;;;;;;5039695;28;20025;-26
2023/03/16 07:38:31;;;;;;;8.98;2.30;;;;;;;;;;5057315;28;20024;-26
2023/03/16 07:40:57;;;;;;;14.60;3.60;;;;;;;;;;5057034;28;20013;-26
2023/03/16 07:43:24;;;;;;;9.82;3.30;;;;;;;;;;5057322;28;20400;-26
2023/03/16 07:45:50;;;;;;;12.27;2.85;;;;;;;;;;5039614;28;20025;-26
2023/03/16 07:48:17;;;;;;;6.90;3.55;;;;;;;;;;5057008;28;20079;-26
2023/03/16 07:50:43;;;;;;;6.28;2.22;;;;;;;;;;5039387;28;20463;-26
2023/03/16 07:53:10;;;;;;;10.00;3.03;;;;;;;;;;5057180;28;20067;-26
2023/03/16 07:55:37;;;;;;;8.23;2.05;;;;;;;;;;5057263;28;20048;-26
2023/03/16 07:58:05;;;;;;;8.77;2.08;;;;;;;;;;5056883;28;20086;-26
2023/03/16 08:00:32;;;;;;;4.85;2.40;;;;;;;;;;5056917;28;20082;-26
2023/03/16 08:02:59;;;;;;;6.88;2.33;;;;;;;;;;5056510;28;20060;-26
2023/03/16 08:05:25;;;;;;;7.57;2.00;;;;;;;;;;5057122;28;20400;-25
2023/03/16 08:07:51;;;;;;;3.97;2.10;;;;;;;;;;5056752;28;20112;-26
2023/03/16 08:10:18;;;;;;;11.50;2.55;;;;;;;;;;5039254;28;20029;-26
2023/03/16 08:12:44;;;;;;;8.63;2.50;;;;;;;;;;5038940;28;20035;-26
2023/03/16 08:15:10;;;;;;;5.07;3.08;;;;;;;;;;5056629;28;20048;-26
2023/03/16 08:17:40;;;;;;;9.15;2.67;;;;;;;;;;5056562;28;20025;-26
2023/03/16 08:20:11;;;;;;;10.10;2.40;;;;;;;;;;5057010;28;20103;-35
2023/03/16 08:22:37;;;;;;;5.28;2.25;;;;;;;;;;5056342;28;20029;-26
2023/03/16 08:25:04;;;;;;;12.43;3.80;;;;;;;;;;5056376;28;20039;-26
2023/03/16 08:27:31;;;;;;;7.18;2.42;;;;;;;;;;5056882;28;20021;-26
2023/03/16 08:29:57;;;;;;;4.85;2.30;;;;;;;;;;5056271;28;20120;-26
2023/03/16 08:32:23;;;;;;;10.05;1.92;;;;;;;;;;5056085;28;20086;-26
2023/03/16 08:34:49;;;;;;;6.93;2.63;;;;;;;;;;5038598;28;20413;-26
2023/03/16 08:37:15;;;;;;;12.98;3.22;;;;;;;;;;5038694;28;20021;-26
2023/03/16 08:39:42;;;;;;;19.90;3.28;;;;;;;;;;5056506;28;20032;-25
2023/03/16 08:42:09;;;;;;;6.07;2.65;;;;;;;;;;5056111;28;20040;-26
2023/03/16 08:44:35;;;;;;;19.60;3.08;;;;;;;;;;5055921;28;20029;-27
2023/03/16 08:47:04;;;;;;;9.73;2.97;;;;;;;;;;5038329;28;20427;-26
2023/03/16 08:49:30;;;;;;;9.10;2.80;;;;;;;;;;5055824;28;20095;-26
2023/03/16 08:51:56;;;;;;;12.68;2.47;;;;;;;;;;5055972;28;20033;-26
2023/03/16 08:54:22;;;;;;;11.07;3.80;;;;;;;;;;5055873;28;20017;-26
2023/03/16 08:56:50;;;;;;;15.30;2.60;;;;;;;;;;5038662;28;20033;-26
2023/03/16 08:59:17;;;;;;;10.88;2.70;;;;;;;;;;5055852;28;20017;-26
2023/03/16 09:01:43;;;;;;;15.38;2.42;;;;;;;;;;5055671;28;20021;-26
2023/03/16 09:04:10;;;;;;;9.65;2.63;;;;;;;;;;5055649;28;20120;-26
2023/03/16 09:06:36;;;;;;;9.40;2.72;;;;;;;;;;5055616;28;20035;-26
2023/03/16 09:09:03;;;;;;;13.85;3.65;;;;;;;;;;5055944;28;20017;-26
2023/03/16 09:11:32;;;;;;;9.80;2.83;;;;;;;;;;5055604;28;20032;-26
2023/03/16 09:13:59;;;;;;;18.10;4.25;;;;;;;;;;5055534;28;20098;-26
2023/03/16 09:16:25;;;;;;;14.30;4.28;;;;;;;;;;5055765;28;20363;-26
2023/03/16 09:18:52;;;;;;;11.82;3.58;;;;;;;;;;5055446;28;20175;-26
2023/03/16 09:21:18;;;;;;;12.15;2.85;;;;;;;;;;5055887;28;20104;-27
2023/03/16 09:23:45;;;;;;;6.53;2.45;;;;;;;;;;5055281;28;20028;-26
2023/03/16 09:26:12;;;;;;;10.32;3.35;;;;;;;;;;5055379;28;20029;-26
2023/03/16 09:28:39;;;;;;;7.10;2.65;;;;;;;;;;5055098;28;20367;-26
2023/03/16 09:31:06;;;;;;;10.85;3.40;;;;;;;;;;5054691;28;20096;-26
2023/03/16 09:33:34;;;;;;;9.07;2.70;;;;;;;;;;5054986;28;20021;-26
2023/03/16 09:36:00;;;;;;;15.68;3.22;;;;;;;;;;5054998;28;20452;-26
2023/03/16 09:38:27;;;;;;;9.05;2.70;;;;;;;;;;5037416;28;20482;-26
2023/03/16 09:41:07;;;;;;;9.38;2.78;;;;;;;;;;5055002;28;20052;-26
2023/03/16 09:43:51;;;;;;;10.52;2.50;;;;;;;;;;5054933;28;20079;-26
2023/03/16 09:46:26;;;;;;;20.70;4.47;;;;;;;;;;5054970;28;20047;-26
2023/03/16 09:48:54;;;;;;;10.20;2.50;;;;;;;;;;5055276;28;20036;-26
2023/03/16 09:51:23;;;;;;;17.27;3.13;;;;;;;;;;5054942;28;20087;-26
2023/03/16 09:53:52;;;;;;;18.27;3.00;;;;;;;;;;5054810;28;20021;-26
2023/03/16 09:56:22;;;;;;;12.02;3.10;;;;;;;;;;5055132;28;20113;-26
2023/03/16 09:58:48;;;;;;;7.72;2.60;;;;;;;;;;5037303;28;20021;-26
2023/03/16 10:01:26;;;;;;;8.82;2.67;;;;;;;;;;5054875;28;20032;-26
2023/03/16 10:03:59;;;;;;;10.75;1.95;;;;;;;;;;5054503;28;20092;-26
2023/03/16 10:06:25;;;;;;;6.90;2.42;;;;;;;;;;5055136;28;20025;-26
2023/03/16 10:08:51;;;;;;;7.72;2.38;;;;;;;;;;5054898;28;20033;-26
2023/03/16 10:11:21;;;;;;;3.97;2.00;;;;;;;;;;5054844;28;20044;-26
2023/03/16 10:14:06;;;;;;;4.40;2.08;;;;;;;;;;5054437;28;20089;-26
2023/03/16 10:16:32;;;;;;;6.78;2.45;;;;;;;;;;5054759;28;20039;-26
2023/03/16 10:19:01;;;;;;;11.00;3.10;;;;;;;;;;5055256;28;20021;-26
2023/03/16 10:21:30;;;;;;;8.48;2.50;;;;;;;;;;5054656;28;20116;-26
2023/03/16 10:23:57;;;;;;;11.00;2.42;;;;;;;;;;5036597;28;20064;-26
2023/03/16 10:26:28;;;;;;;7.95;2.53;;;;;;;;;;5054541;28;20025;-26
2023/03/16 10:28:54;;;;;;;12.57;2.92;;;;;;;;;;5054204;28;20033;-26
2023/03/16 10:31:22;;;;;;;12.88;3.28;;;;;;;;;;5054428;28;20044;-26
2023/03/16 10:33:50;;;;;;;11.35;3.10;;;;;;;;;;5054115;28;20032;-26
2023/03/16 10:36:30;;;;;;;7.40;2.72;;;;;;;;;;5054522;28;20352;-26
2023/03/16 10:38:58;;;;;;;10.90;2.75;;;;;;;;;;5054132;28;20519;-26
2023/03/16 10:41:31;;;;;;;9.82;2.00;;;;;;;;;;5054203;28;20452;-26
2023/03/16 10:44:07;;;;;;;4.40;2.38;;;;;;;;;;5037963;28;20163;-26
2023/03/16 10:46:40;;;;;;;6.70;2.40;;;;;;;;;;5058311;28;20029;-26
2023/03/16 10:49:19;;;;;;;10.43;2.78;;;;;;;;;;5058278;28;20474;-26
2023/03/16 10:51:45;;;;;;;6.20;2.63;;;;;;;;;;5058254;28;20029;-26
2023/03/16 10:54:16;;;;;;;9.77;2.78;;;;;;;;;;5058025;28;20025;-26
2023/03/16 10:56:42;;;;;;;10.02;2.65;;;;;;;;;;5058452;28;20104;-26
2023/03/16 10:59:26;;;;;;;14.57;2.67;;;;;;;;;;5058129;28;20108;-26
2023/03/16 11:01:53;;;;;;;8.10;2.95;;;;;;;;;;5058380;28;20352;-26
2023/03/16 11:04:20;;;;;;;6.72;2.70;;;;;;;;;;5036932;28;20449;-26
2023/03/16 11:06:52;;;;;;;10.48;2.75;;;;;;;;;;5037919;28;20053;-26
2023/03/16 11:09:20;;;;;;;8.05;2.40;;;;;;;;;;5038365;28;20022;-26
2023/03/16 11:11:48;;;;;;;21.30;2.80;;;;;;;;;;5037827;28;20021;-26
2023/03/16 11:14:14;;;;;;;5.97;2.47;;;;;;;;;;5037787;28;20046;-26
2023/03/16 11:16:49;;;;;;;8.77;2.35;;;;;;;;;;5037797;28;20022;-27
2023/03/16 11:19:28;;;;;;;7.28;2.80;;;;;;;;;;5037596;28;20022;-26
2023/03/16 11:21:54;;;;;;;10.25;2.58;;;;;;;;;;5037857;28;20100;-24
2023/03/16 11:24:33;;;;;;;7.10;3.13;;;;;;;;;;5037463;28;20076;-24
2023/03/16 11:27:00;;;;;;;6.78;2.45;;;;;;;;;;5037757;28;20025;-27
2023/03/16 11:29:26;;;;;;;5.90;2.38;;;;;;;;;;5037480;28;20025;-26
2023/03/16 11:31:54;;;;;;;13.52;3.30;;;;;;;;;;5037196;28;20029;-24
2023/03/16 11:34:31;;;;;;;6.47;2.28;;;;;;;;;;5036458;28;20029;-26
2023/03/16 11:37:05;;;;;;;6.55;3.67;;;;;;;;;;5038111;28;20032;-27
2023/03/16 11:39:43;;;;;;;7.68;3.17;;;;;;;;;;5037913;28;20087;-27
2023/03/16 11:42:12;;;;;;;6.90;2.03;;;;;;;;;;5037304;28;20468;-27
2023/03/16 11:44:38;;;;;;;9.10;2.45;;;;;;;;;;5037259;28;20029;-26
2023/03/16 11:47:28;;;;;;;7.05;2.80;;;;;;;;;;5036263;28;20021;-26
2023/03/16 11:50:01;;;;;;;5.88;2.88;;;;;;;;;;5018375;28;20048;-24
2023/03/16 11:52:33;;;;;;;7.30;3.15;;;;;;;;;;5037221;28;20329;-24
2023/03/16 11:55:16;;;;;;;5.35;2.80;;;;;;;;;;5037014;28;20033;-24
2023/03/16 11:57:50;;;;;;;12.27;3.38;;;;;;;;;;5037634;28;20083;-24
2023/03/16 12:00:32;;;;;;;6.95;4.00;;;;;;;;;;5037065;28;20033;-24
2023/03/16 12:03:16;;;;;;;4.28;2.45;;;;;;;;;;5044998;28;20056;-26
2023/03/16 12:06:01;;;;;;;7.53;2.60;;;;;;;;;;5056826;28;20099;-26
2023/03/16 12:08:37;;;;;;;6.65;2.17;;;;;;;;;;5056893;28;20037;-27
2023/03/16 12:11:07;;;;;;;11.93;2.83;;;;;;;;;;5057071;28;20039;-26
2023/03/16 12:13:51;;;;;;;7.22;2.30;;;;;;;;;;5056779;28;20064;-26
2023/03/16 12:16:30;;;;;;;12.25;2.38;;;;;;;;;;5056807;28;20045;-24
2023/03/16 12:19:03;;;;;;;11.75;2.90;;;;;;;;;;5056627;28;20021;-24
2023/03/16 12:21:44;;;;;;;9.23;2.50;;;;;;;;;;5039037;28;20100;-24
2023/03/16 12:24:16;;;;;;;9.48;3.03;;;;;;;;;;5056429;28;20021;-24
2023/03/16 12:26:42;;;;;;;15.32;3.65;;;;;;;;;;5056383;28;20029;-26
2023/03/16 12:29:19;;;;;;;7.38;3.10;;;;;;;;;;5056315;28;20052;-24
2023/03/16 12:31:51;;;;;;;10.93;3.08;;;;;;;;;;5056696;28;20028;-24
2023/03/16 12:34:23;;;;;;;13.02;2.88;;;;;;;;;;5056478;28;20086;-24
2023/03/16 12:37:08;;;;;;;10.18;3.05;;;;;;;;;;5056231;28;20025;-24
2023/03/16 12:39:40;;;;;;;15.05;2.70;;;;;;;;;;5056039;28;20093;-24
2023/03/16 12:42:15;;;;;;;9.38;2.95;;;;;;;;;;5056217;28;20105;-24
2023/03/16 12:45:08;;;;;;;7.90;2.63;;;;;;;;;;5056119;28;20040;-24
2023/03/16 12:47:43;;;;;;;13.07;2.85;;;;;;;;;;5052572;28;20360;-24
2023/03/16 12:50:11;;;;;;;8.30;3.00;;;;;;;;;;5056040;28;20029;-26
2023/03/16 12:52:45;;;;;;;9.25;2.83;;;;;;;;;;5055635;28;20351;-26
2023/03/16 12:55:16;;;;;;;8.15;4.50;;;;;;;;;;5055711;28;20033;-26
2023/03/16 12:57:42;;;;;;;;;;;;;;;;;;5038344;28;20467;-24
2023/03/16 13:00:09;;;;;;;5.78;2.75;;;;;;;;;;5055805;28;19912;-24
2023/03/16 13:02:41;;;;;;;8.77;3.80;;;;;;;;;;5055356;28;20053;-24
2023/03/16 13:05:12;;;;;;;13.02;3.28;;;;;;;;;;5037757;28;20029;-24
2023/03/16 13:07:46;;;;;;;7.68;2.92;;;;;;;;;;5054397;28;20036;-24
2023/03/16 13:10:13;;;;;;;6.15;2.83;;;;;;;;;;5055574;28;20108;-26
2023/03/16 13:12:40;;;;;;;8.77;3.28;;;;;;;;;;5037646;28;20040;-24
2023/03/16 13:15:24;;;;;;;21.05;3.97;;;;;;;;;;5055222;28;20021;-24
2023/03/16 13:18:03;;;;;;;4.65;2.50;;;;;;;;;;5055698;28;20072;-24
2023/03/16 13:20:30;;;;;;;9.98;2.85;;;;;;;;;;5055044;28;20024;-24
2023/03/16 13:23:12;;;;;;;9.80;3.28;;;;;;;;;;5054975;28;20116;-24
2023/03/16 13:25:37;;;;;;;;;;;;;;;;;;5055489;28;20120;-24
2023/03/16 13:28:06;;;;;;;10.30;3.22;;;;;;;;;;5054921;28;20008;-24
2023/03/16 13:30:34;;;;;;;11.02;3.55;;;;;;;;;;5055282;28;20033;-24
2023/03/16 13:33:07;;;;;;;8.35;3.00;;;;;;;;;;5054831;28;20029;-24
2023/03/16 13:35:34;;;;;;;16.52;3.15;;;;;;;;;;5055370;28;20024;-24
2023/03/16 13:38:06;;;;;;;6.28;2.67;;;;;;;;;;5054843;28;20025;-24
2023/03/16 13:40:34;;;;;;;5.45;2.67;;;;;;;;;;5037347;28;20059;-25
2023/03/16 13:43:01;;;;;;;8.15;3.25;;;;;;;;;;5054827;28;20068;-24
2023/03/16 13:45:28;;;;;;;12.20;3.67;;;;;;;;;;5054976;28;20092;-25
2023/03/16 13:47:54;;;;;;;10.57;2.67;;;;;;;;;;5054923;28;20017;-25
2023/03/16 13:50:20;;;;;;;5.50;2.40;;;;;;;;;;5054859;28;20028;-24
2023/03/16 13:52:57;;;;;;;8.18;2.63;;;;;;;;;;5037020;28;20108;-25
2023/03/16 13:55:35;;;;;;;23.50;2.78;;;;;;;;;;5054871;28;20017;-25
2023/03/16 13:58:03;;;;;;;10.45;3.05;;;;;;;;;;5054888;28;20132;-25
2023/03/16 14:00:37;;;;;;;11.27;3.00;;;;;;;;;;5055117;28;20440;-25
2023/03/16 14:03:17;;;;;;;7.72;2.55;;;;;;;;;;5054838;28;20045;-24
2023/03/16 14:05:43;;;;;;;6.15;3.15;;;;;;;;;;5055004;28;20040;-25
2023/03/16 14:08:14;;;;;;;8.30;2.72;;;;;;;;;;5054659;28;20032;-24
2023/03/16 14:10:42;;;;;;;9.88;3.28;;;;;;;;;;5055297;28;20513;-24
2023/03/16 14:13:09;;;;;;;7.90;2.63;;;;;;;;;;5054740;28;20041;-25
2023/03/16 14:15:37;;;;;;;10.38;2.97;;;;;;;;;;5054633;28;20021;-25
2023/03/16 14:18:32;;;;;;;13.43;3.10;;;;;;;;;;5054871;28;20391;-25
2023/03/16 14:20:58;;;;;;;7.47;2.75;;;;;;;;;;5037639;28;20033;-24
2023/03/16 14:23:32;;;;;;;7.38;3.58;;;;;;;;;;5054496;28;20036;-24
2023/03/16 14:25:58;;;;;;;8.00;2.47;;;;;;;;;;5037045;28;20368;-24
2023/03/16 14:28:30;;;;;;;10.93;2.65;;;;;;;;;;5054782;28;20383;-25
2023/03/16 14:31:10;;;;;;;19.13;3.20;;;;;;;;;;5054523;28;20029;-24
2023/03/16 14:33:40;;;;;;;22.05;6.10;;;;;;;;;;5054296;28;20355;-25
2023/03/16 14:36:16;;;;;;;38.20;7.22;;;;;;;;;;5054586;28;20432;-24
2023/03/16 14:38:47;;;;;;;18.40;3.55;;;;;;;;;;5054896;28;20021;-25
2023/03/16 14:41:17;;;;;;;21.10;5.20;;;;;;;;;;5054589;28;20023;-25
2023/03/16 14:43:48;;;;;;;26.65;4.65;;;;;;;;;;5054480;28;20025;-25
2023/03/16 14:46:23;;;;;;;15.50;4.00;;;;;;;;;;5054427;28;20036;-25
2023/03/16 14:48:49;;;;;;;22.73;3.63;;;;;;;;;;5054497;28;20359;-25
2023/03/16 14:51:15;;;;;;;20.25;3.38;;;;;;;;;;5055222;28;20112;-25
2023/03/16 14:53:42;;;;;;;10.73;3.28;;;;;;;;;;5054318;28;20060;-25